Time,TemperatureF,DewpointF,PressureIn,WindDirection,WindDirectionDegrees,WindSpeedMPH,WindSpeedGustMPH,Humidity,HourlyPrecipIn,Conditions,Clouds,dailyrainin,SoftwareType,DateUTC
2013-03-05 02:52:00,44.0,36.0,29.76,SE,130,0.0,0.0,74,0.00,,,0.01,,2013-03-05 08:52:00,
2013-03-05 03:01:00,44.0,37.0,29.76,SE,130,0.0,0.0,75,0.00,,,0.01,,2013-03-05 09:01:00,
2013-03-05 03:11:00,44.0,37.0,29.76,SE,130,0.0,0.0,75,0.00,,,0.01,,2013-03-05 09:11:00,
2013-03-05 03:21:00,44.0,37.0,29.76,SE,130,0.0,0.0,75,0.00,,,0.01,,2013-03-05 09:21:00,
2013-03-05 03:31:00,44.0,37.0,29.75,SE,130,0.0,0.0,77,0.00,,,0.01,,2013-03-05 09:31:00,
2013-03-05 03:42:00,44.0,37.0,29.75,SE,130,0.0,0.0,77,0.00,,,0.01,,2013-03-05 09:42:00,
2013-03-05 03:52:00,44.0,38.0,29.75,SE,130,0.0,0.0,78,0.00,,,0.01,,2013-03-05 09:52:00,
2013-03-05 04:01:00,44.0,38.0,29.74,SE,130,0.0,1.0,80,0.00,,,0.01,,2013-03-05 10:01:00,
2013-03-05 04:11:00,44.0,38.0,29.74,SE,130,0.0,1.0,80,0.00,,,0.01,,2013-03-05 10:11:00,
2013-03-05 04:21:00,44.0,38.0,29.74,SE,130,0.0,0.0,80,0.00,,,0.01,,2013-03-05 10:21:00,
2013-03-05 04:32:00,43.0,38.0,29.75,SE,130,0.0,0.0,81,0.00,,,0.01,,2013-03-05 10:32:00,
2013-03-05 04:42:00,43.0,38.0,29.75,SE,130,0.0,0.0,81,0.00,,,0.01,,2013-03-05 10:42:00,
2013-03-05 04:52:00,43.0,38.0,29.75,SE,130,0.0,0.0,81,0.00,,,0.01,,2013-03-05 10:52:00,
2013-03-05 05:01:00,43.0,38.0,29.75,SE,130,0.0,0.0,81,0.00,,,0.01,,2013-03-05 11:01:00,
2013-03-05 05:11:00,43.0,38.0,29.75,SE,130,0.0,0.0,81,0.00,,,0.01,,2013-03-05 11:11:00,
2013-03-05 05:22:00,43.0,38.0,29.75,SE,130,0.0,0.0,82,0.00,,,0.01,,2013-03-05 11:22:00,
2013-03-05 05:32:00,43.0,38.0,29.77,SE,130,0.0,0.0,82,0.00,,,0.01,,2013-03-05 11:32:00,
2013-03-05 05:42:00,43.0,38.0,29.77,SE,130,0.0,0.0,82,0.00,,,0.01,,2013-03-05 11:42:00,
2013-03-05 05:52:00,43.0,38.0,29.77,SE,130,0.0,0.0,82,0.00,,,0.01,,2013-03-05 11:52:00,
2013-03-05 06:02:00,43.0,38.0,29.77,SE,130,0.0,0.0,82,0.00,,,0.01,,2013-03-05 12:02:00,
2013-03-05 06:11:00,43.0,38.0,29.77,SE,130,0.0,0.0,82,0.00,,,0.01,,2013-03-05 12:11:00,
2013-03-05 06:22:00,43.0,38.0,29.77,SE,130,0.0,0.0,82,0.00,,,0.01,,2013-03-05 12:22:00,
2013-03-05 06:32:00,43.0,38.0,29.77,SE,130,0.0,0.0,82,0.00,,,0.01,,2013-03-05 12:32:00,
2013-03-05 06:42:00,43.0,38.0,29.77,SE,130,0.0,0.0,82,0.00,,,0.01,,2013-03-05 12:42:00,
2013-03-05 06:52:00,43.0,38.0,29.77,SE,130,0.0,0.0,82,0.00,,,0.01,,2013-03-05 12:52:00,
2013-03-05 07:02:00,43.0,38.0,29.75,SE,130,0.0,0.0,83,0.00,,,0.01,,2013-03-05 13:02:00,
2013-03-05 07:11:00,43.0,38.0,29.75,SE,130,0.0,0.0,83,0.00,,,0.01,,2013-03-05 13:11:00,
2013-03-05 07:21:00,43.0,38.0,29.75,SE,130,0.0,2.0,84,0.00,,,0.01,,2013-03-05 13:21:00,
2013-03-05 07:32:00,43.0,39.0,29.75,SE,130,0.0,0.0,85,0.00,,,0.01,,2013-03-05 13:32:00,
2013-03-05 07:42:00,43.0,39.0,29.75,SE,130,0.0,0.0,85,0.00,,,0.01,,2013-03-05 13:42:00,
2013-03-05 07:52:00,43.0,39.0,29.75,SE,130,1.0,2.0,85,0.00,,,0.01,,2013-03-05 13:52:00,
2013-03-05 08:02:00,44.0,40.0,29.75,SE,130,0.0,2.0,86,0.00,,,0.01,,2013-03-05 14:02:00,
2013-03-05 08:11:00,44.0,40.0,29.75,SE,130,0.0,2.0,86,0.00,,,0.01,,2013-03-05 14:11:00,
2013-03-05 08:21:00,44.0,40.0,29.75,SE,130,2.0,2.0,86,0.00,,,0.01,,2013-03-05 14:21:00,
2013-03-05 08:32:00,44.0,40.0,29.75,SE,130,0.0,0.0,87,0.00,,,0.01,,2013-03-05 14:32:00,
2013-03-05 08:42:00,44.0,40.0,29.75,SE,130,0.0,0.0,87,0.00,,,0.01,,2013-03-05 14:42:00,
2013-03-05 08:52:00,44.0,40.0,29.75,SE,130,0.0,0.0,87,0.00,,,0.01,,2013-03-05 14:52:00,
2013-03-05 09:01:00,44.0,40.0,29.75,SE,130,0.0,0.0,87,0.00,,,0.01,,2013-03-05 15:01:00,
2013-03-05 09:11:00,44.0,40.0,29.75,SE,130,0.0,0.0,87,0.00,,,0.01,,2013-03-05 15:11:00,
2013-03-05 14:32:00,33.0,31.0,29.82,WNW,298,10.0,10.0,94,0.02,,,0.05,,2013-03-05 20:32:00,
2013-03-05 14:42:00,33.0,31.0,29.82,WNW,298,10.0,10.0,94,0.02,,,0.05,,2013-03-05 20:42:00,
2013-03-05 14:52:00,33.0,31.0,29.82,WNW,298,10.0,10.0,94,0.02,,,0.05,,2013-03-05 20:52:00,
2013-03-05 15:02:00,33.0,31.0,29.82,WNW,298,10.0,10.0,94,0.02,,,0.05,,2013-03-05 21:02:00,
2013-03-05 15:11:00,33.0,31.0,29.82,WNW,298,10.0,10.0,94,0.02,,,0.05,,2013-03-05 21:11:00,
2013-03-05 20:32:00,32.0,25.0,29.96,WNW,294,12.0,12.0,74,0.00,,,0.09,,2013-03-06 02:32:00,
2013-03-05 20:42:00,32.0,25.0,29.96,WNW,294,12.0,12.0,74,0.00,,,0.09,,2013-03-06 02:42:00,
2013-03-05 20:52:00,32.0,25.0,29.96,WNW,294,12.0,12.0,74,0.00,,,0.09,,2013-03-06 02:52:00,
2013-03-05 21:01:00,32.0,27.0,29.95,WNW,286,10.0,10.0,80,0.00,,,0.09,,2013-03-06 03:01:00,
2013-03-05 21:11:00,32.0,27.0,29.95,WNW,286,10.0,10.0,80,0.00,,,0.09,,2013-03-06 03:11:00,
2013-03-05 21:22:00,32.0,27.0,29.95,West,276,8.0,10.0,81,0.00,,,0.09,,2013-03-06 03:22:00,
2013-03-05 21:32:00,32.0,27.0,29.95,WNW,302,10.0,13.0,83,0.00,,,0.09,,2013-03-06 03:32:00,
2013-03-05 21:42:00,32.0,27.0,29.95,WNW,302,10.0,13.0,83,0.00,,,0.09,,2013-03-06 03:42:00,
2013-03-05 21:52:00,32.0,27.0,29.95,West,279,10.0,11.0,83,0.00,,,0.09,,2013-03-06 03:52:00,
2013-03-05 22:02:00,32.0,28.0,29.96,West,273,6.0,6.0,84,0.00,,,0.09,,2013-03-06 04:02:00,
2013-03-05 22:11:00,32.0,28.0,29.96,West,273,6.0,6.0,84,0.00,,,0.09,,2013-03-06 04:11:00,
2013-03-05 22:21:00,32.0,28.0,29.96,NNW,337,9.0,12.0,84,0.00,,,0.09,,2013-03-06 04:21:00,
2013-03-05 22:32:00,32.0,27.0,29.96,NW,309,6.0,15.0,83,0.00,,,0.09,,2013-03-06 04:32:00,
2013-03-05 22:41:00,32.0,27.0,29.96,NW,309,6.0,15.0,83,0.00,,,0.09,,2013-03-06 04:41:00,
2013-03-05 22:52:00,32.0,27.0,29.96,WNW,294,13.0,13.0,82,0.00,,,0.09,,2013-03-06 04:52:00,
2013-03-05 23:02:00,32.0,26.0,29.97,West,270,14.0,15.0,79,0.00,,,0.09,,2013-03-06 05:02:00,
2013-03-05 23:11:00,32.0,26.0,29.97,West,274,3.0,15.0,78,0.00,,,0.09,,2013-03-06 05:11:00,
2013-03-05 23:22:00,32.0,26.0,29.97,West,274,3.0,15.0,78,0.00,,,0.09,,2013-03-06 05:22:00,
2013-03-05 23:32:00,32.0,25.0,29.97,NW,323,6.0,14.0,76,0.00,,,0.09,,2013-03-06 05:32:00,
2013-03-05 23:42:00,32.0,25.0,29.97,NW,323,6.0,14.0,76,0.00,,,0.09,,2013-03-06 05:42:00,
2013-03-05 23:52:00,33.0,26.0,29.97,WNW,285,17.0,17.0,75,0.00,,,0.09,,2013-03-06 05:52:00,